Flight Track Log - Related Links

Times and Time Zones

All times are in EDT time to prevent confusion due to time zone crossing. See the N245SP flight status page for this flight to view local times or setup timezone preferences in your user account.

Time Position Orientation Groundspeed Altitude Reporting Facility
EDT Latitude Longitude Course Direction KTS MPH feet Rate Location/Type
Sat 01:43:22 AM 34.1756 -118.3583 321° Northwest 187 215 2,200  Level Los Angeles Center
Sat 01:48:22 AM 34.4031 -118.5783 329° Northwest 240 276 13,800 2,317 Climbing Los Angeles Center
Sat 01:49:22 AM 34.4689 -118.6258 329° Northwest 261 300 16,100 2,300 Climbing Los Angeles Center
Sat 01:50:22 AM 34.5325 -118.6731 331° Northwest 267 307 18,400 2,250 Climbing Los Angeles Center
Sat 01:51:22 AM 34.5983 -118.7181 329° Northwest 267 307 20,600 1,900 Climbing Los Angeles Center
Sat 01:52:22 AM 34.6661 -118.7681 328° Northwest 272 313 22,200 1,650 Climbing Los Angeles Center
Sat 01:53:22 AM 34.7319 -118.8181 330° Northwest 277 319 23,900 1,700 Climbing Los Angeles Center
Sat 01:54:22 AM 34.8039 -118.8686 345° North 277 319 25,600 1,700 Climbing Los Angeles Center
Sat 01:55:22 AM 34.8889 -118.8967 352° North 282 325 27,300 1,700 Climbing Los Angeles Center
Sat 01:56:22 AM 34.9678 -118.9094 346° North 282 325 29,000 1,700 Climbing Los Angeles Center
Sat 01:57:22 AM 35.0425 -118.9322 347° North 282 325 30,700 1,550 Climbing Los Angeles Center
Sat 01:58:22 AM 35.1150 -118.9525 347° North 282 325 32,100 1,200 Climbing Los Angeles Center
Sat 01:59:22 AM 35.1936 -118.9756 347° North 282 325 33,100 1,037 Climbing Los Angeles Center
Sat 02:01:04 AM 35.3456 -119.0189 345° North 301 346 34,900 1,037 Climbing Oakland Center
Sat 02:02:04 AM 35.4294 -119.0472 348° North 306 352 35,900 1,000 Climbing Oakland Center
Sat 02:03:04 AM 35.5133 -119.0683 346° North 306 352 36,900 1,000 Climbing Oakland Center
Sat 02:04:04 AM 35.5992 -119.0942 347° North 306 352 37,900 1,000 Climbing Oakland Center
Sat 02:05:04 AM 35.6850 -119.1178 346° North 306 352 38,900 750 Climbing Oakland Center
Sat 02:06:04 AM 35.7689 -119.1439 346° North 306 352 39,400 500 Climbing Oakland Center
Sat 02:07:04 AM 35.8569 -119.1700 345° North 306 352 39,900 300 Climbing Oakland Center
Sat 02:08:04 AM 35.9450 -119.1986 347° North 317 365 40,000 50 Climbing Oakland Center
Sat 02:09:04 AM 36.0372 -119.2247 345° North 323 372 40,000  Level Oakland Center
Sat 02:10:04 AM 36.1336 -119.2561 348° North 340 391 40,000  Level Oakland Center
Sat 02:11:04 AM 36.2300 -119.2822 346° North 347 399 40,000  Level Oakland Center
Sat 02:12:04 AM 36.3306 -119.3136 347° North 357 411 40,000  Level Oakland Center
Sat 02:13:04 AM 36.4289 -119.3422 346° North 357 411 40,000  Level Oakland Center
Sat 02:14:04 AM 36.5294 -119.3739 347° North 357 411 40,000  Level Oakland Center
Sat 02:15:04 AM 36.6281 -119.4028 346° North 357 411 40,000  Level Oakland Center
Sat 02:16:05 AM 36.7244 -119.4319 346° North 357 411 40,000  Level Oakland Center
Sat 02:17:04 AM 36.8269 -119.4636 347° North 357 411 40,000  Level Oakland Center
Sat 02:18:04 AM 36.9253 -119.4928 346° North 362 417 40,000  Level Oakland Center
Sat 02:19:04 AM 37.0258 -119.5244 346° North 362 417 40,000  Level Oakland Center
Sat 02:20:04 AM 37.1264 -119.5564 345° North 362 417 40,000  Level Oakland Center
Sat 02:21:04 AM 37.2247 -119.5886 347° North 362 417 40,000  Level Oakland Center
Sat 02:22:04 AM 37.3253 -119.6181 348° North 367 422 40,000  Level Oakland Center
Sat 02:23:04 AM 37.4278 -119.6450 346° North 367 422 40,000  Level Oakland Center
Sat 02:24:04 AM 37.5283 -119.6772 347° North 367 422 40,000  Level Oakland Center
Sat 02:25:04 AM 37.6331 -119.7069 347° North 377 434 40,000  Level Oakland Center
Sat 02:26:04 AM 37.7333 -119.7367 346° North 377 434 40,000  Level Oakland Center
Sat 02:27:04 AM 37.8339 -119.7692 346° North 372 428 40,000  Level Oakland Center
Sat 02:28:04 AM 37.9342 -119.8017 346° North 372 428 40,000  Level Oakland Center
Sat 02:29:04 AM 38.0369 -119.8344 347° North 367 422 40,000  Level Oakland Center
Sat 02:30:04 AM 38.1372 -119.8644 346° North 372 428 40,000  Level Oakland Center
Sat 02:31:04 AM 38.2397 -119.8972 346° North 377 434 40,000  Level Oakland Center
Sat 02:32:04 AM 38.3422 -119.9303 346° North 377 434 40,000  Level Oakland Center
Sat 02:33:04 AM 38.4406 -119.9606 346° North 377 434 40,000  Level Oakland Center
Sat 02:34:04 AM 38.5389 -119.9911 345° North 377 434 40,000  Level Oakland Center
Sat 02:35:04 AM 38.6372 -120.0244 345° North 372 428 40,000  Level Oakland Center
Sat 02:36:04 AM 38.7333 -120.0578 346° North 366 421 40,000  Level Oakland Center
Sat 02:37:04 AM 38.8294 -120.0883 345° North 360 414 40,000  Level Oakland Center
Sat 02:38:04 AM 38.9278 -120.1219 346° North 360 414 40,000 500 Level Oakland Center
Sat 02:39:04 AM 39.0239 -120.1528 345° North 360 414 41,000 900 Climbing Oakland Center
Sat 02:40:04 AM 39.1139 -120.1839 346° North 348 400 41,800 650 Climbing Oakland Center
Sat 02:41:04 AM 39.2036 -120.2125 347° North 341 392 42,300 500 Climbing Oakland Center
Sat 02:42:04 AM 39.2956 -120.2408 345° North 341 392 42,800 350 Climbing Oakland Center
Sat 02:43:04 AM 39.3853 -120.2722 346° North 341 392 43,000 100 Climbing Oakland Center
Sat 02:44:04 AM 39.4753 -120.3008 344° North 341 392 43,000  Level Oakland Center
Sat 02:45:04 AM 39.5692 -120.3350 347° North 341 392 43,000  Level Oakland Center
Sat 02:46:04 AM 39.6653 -120.3639 345° North 341 392 43,000  Level Oakland Center
Sat 02:47:04 AM 39.7633 -120.3981 345° North 341 392 43,000  Level Oakland Center
Sat 02:48:04 AM 39.8617 -120.4325 344° North 352 405 43,000  Level Oakland Center
Sat 02:49:04 AM 39.9619 -120.4697 350° North 358 412 43,000  Level Oakland Center
Sat 02:50:04 AM 40.0453 -120.4881 344° North 348 400 43,000  Level Oakland Center
Sat 02:51:04 AM 40.1456 -120.5253 346° North 348 400 43,000  Level Oakland Center
Sat 02:52:04 AM 40.2436 -120.5572 346° North 354 407 43,000  Level Oakland Center
Sat 02:53:57 AM 40.4342 -120.6211 345° North 370 426 43,000  Level Seattle Center
Sat 02:54:58 AM 40.5339 -120.6558 346° North 371 427 43,000  Level Seattle Center
Sat 02:55:58 AM 40.6342 -120.6894 345° North 372 428 43,000  Level Seattle Center
Sat 02:56:58 AM 40.7342 -120.7247 346° North 372 428 43,000  Level Seattle Center
Sat 02:57:59 AM 40.8353 -120.7592 345° North 374 430 43,000  Level Seattle Center
Sat 02:58:59 AM 40.9358 -120.7939 345° North 374 430 43,000  Level Seattle Center
Sat 02:59:59 AM 41.0344 -120.8286 345° North 370 426 43,000  Level Seattle Center
Sat 03:00:59 AM 41.1344 -120.8639 345° North 370 426 43,000  Level Seattle Center
Sat 03:01:59 AM 41.2364 -120.8994 345° North 376 433 43,000  Level Seattle Center
Sat 03:03:00 AM 41.3517 -120.9394 345° North 376 433 43,000  Level Seattle Center
Sat 03:04:00 AM 41.4392 -120.9703 345° North 378 435 43,000  Level Seattle Center
Sat 03:05:00 AM 41.5403 -121.0072 345° North 378 435 43,000  Level Seattle Center
Sat 03:06:00 AM 41.6414 -121.0422 345° North 377 434 43,000  Level Seattle Center
Sat 03:07:01 AM 41.7419 -121.0783 345° North 376 433 43,000  Level Seattle Center
Sat 03:08:01 AM 41.8425 -121.1133 345° North 375 432 43,000  Level Seattle Center
Sat 03:09:01 AM 41.9444 -121.1506 346° North 378 435 43,000  Level Seattle Center
Sat 03:10:01 AM 42.0447 -121.1844 345° North 375 432 43,000  Level Seattle Center
Sat 03:11:01 AM 42.1472 -121.2208 345° North 380 437 43,000  Level Seattle Center
Sat 03:12:02 AM 42.2503 -121.2583 345° North 383 441 43,000  Level Seattle Center
Sat 03:13:02 AM 42.3539 -121.2961 345° North 387 445 43,000  Level Seattle Center
Sat 03:14:02 AM 42.4767 -121.3400 345° North 385 443 43,000  Level Seattle Center
Sat 03:15:02 AM 42.5786 -121.3758 345° North 381 438 43,000  Level Seattle Center
Sat 03:16:02 AM 42.6806 -121.4133 345° North 381 438 43,000  Level Seattle Center
Sat 03:17:03 AM 42.7836 -121.4517 345° North 385 443 43,000  Level Seattle Center
Sat 03:18:03 AM 42.8869 -121.4889 346° North 385 443 43,000  Level Seattle Center
Sat 03:19:03 AM 42.9894 -121.5250 344° North 382 440 43,000  Level Seattle Center
Sat 03:20:03 AM 43.0925 -121.5650 344° North 385 443 43,000  Level Seattle Center
Sat 03:21:04 AM 43.1953 -121.6044 345° North 385 443 43,000  Level Seattle Center
Sat 03:22:04 AM 43.2983 -121.6425 345° North 384 442 43,000  Level Seattle Center
Sat 03:23:04 AM 43.4008 -121.6806 345° North 383 441 43,000  Level Seattle Center
Sat 03:24:04 AM 43.5025 -121.7181 345° North 380 437 43,000  Level Seattle Center
Sat 03:25:04 AM 43.6044 -121.7567 345° North 380 437 43,000  Level Seattle Center
Sat 03:26:04 AM 43.7064 -121.7956 345° North 380 437 43,000  Level Seattle Center
Sat 03:27:05 AM 43.8089 -121.8328 345° North 381 438 43,000  Level Seattle Center
Sat 03:28:05 AM 43.9056 -121.8681 345° North 382 440 43,000  Level Seattle Center
Sat 03:29:05 AM 44.0097 -121.9061 345° North 381 438 43,000  Level Seattle Center
Sat 03:30:05 AM 44.1122 -121.9447 344° North 382 440 43,000  Level Seattle Center
Sat 03:31:05 AM 44.2142 -121.9847 345° North 381 438 43,000  Level Seattle Center
Sat 03:32:05 AM 44.3156 -122.0239 345° North 379 436 43,000  Level Seattle Center
Sat 03:33:06 AM 44.4183 -122.0636 345° North 382 440 43,000  Level Seattle Center
Sat 03:34:06 AM 44.5194 -122.1022 344° North 380 437 43,000  Level Seattle Center
Sat 03:35:06 AM 44.6200 -122.1419 345° North 378 435 43,000  Level Seattle Center
Sat 03:36:06 AM 44.7208 -122.1811 344° North 377 434 43,000  Level Seattle Center
Sat 03:37:06 AM 44.8211 -122.2208 345° North 377 434 43,000  Level Seattle Center
Sat 03:38:06 AM 44.9231 -122.2594 344° North 377 434 43,000  Level Seattle Center
Sat 03:39:07 AM 45.0242 -122.3006 344° North 378 435 43,000  Level Seattle Center
Sat 03:40:07 AM 45.1250 -122.3425 346° North 379 436 43,000  Level Seattle Center
Sat 03:41:07 AM 45.2242 -122.3786 344° North 374 430 43,000  Level Seattle Center
Sat 03:42:07 AM 45.3242 -122.4194 344° North 375 432 43,000  Level Seattle Center
Sat 03:43:07 AM 45.4244 -122.4592 344° North 376 433 43,000  Level Seattle Center
Sat 03:44:07 AM 45.5258 -122.4997 344° North 378 435 43,000  Level Seattle Center
Sat 03:45:08 AM 45.6269 -122.5406 345° North 379 436 43,000 -893 Level Seattle Center
Sat 03:46:08 AM 45.7281 -122.5803 349° North 379 436 41,200 -1,850 Descending Seattle Center
Sat 03:47:08 AM 45.8300 -122.6100 351° North 376 433 39,300 -1,950 Descending Seattle Center
Sat 03:48:08 AM 45.9300 -122.6328 349° North 367 422 37,300 -2,200 Descending Seattle Center
Sat 03:49:08 AM 46.0467 -122.6667 350° North 360 414 34,900 -2,200 Descending Seattle Center
Sat 03:50:08 AM 46.1364 -122.6894 349° North 343 395 32,900 -1,736 Descending Seattle Center
Sat 03:51:09 AM 46.2242 -122.7133 351° North 331 381 31,400 -1,835 Descending Seattle Center
Sat 03:52:09 AM 46.3211 -122.7367 351° North 359 413 29,200 -2,050 Descending Seattle Center
Sat 03:53:09 AM 46.4217 -122.7608 350° North 373 429 27,300 -1,900 Descending Seattle Center
Sat 03:54:09 AM 46.5222 -122.7875 350° North 372 428 25,400 -1,900 Descending Seattle Center
Sat 03:55:09 AM 46.6208 -122.8136 341° North 366 421 23,500 -1,900 Descending Seattle Center
Sat 03:56:09 AM 46.7097 -122.8581 342° North 347 399 21,600 -1,835 Descending Seattle Center
Sat 03:57:10 AM 46.7986 -122.8994 341° North 343 395 19,800 -1,785 Descending Seattle Center
Sat 03:58:10 AM 46.8858 -122.9444 340° North 337 388 18,000 -1,700 Descending Seattle Center
Sat 03:59:10 AM 46.9706 -122.9894 North 330 380 16,400 -1,700 Descending Seattle Center
Sat 04:00:10 AM 47.0586 -122.9697 11° North 322 371 14,600 -1,800 Descending Seattle Center
Sat 04:01:10 AM 47.1447 -122.9461 18° North 317 365 12,800 -1,800 Descending Seattle Center
Sat 04:02:10 AM 47.2264 -122.9072 31° Northeast 315 362 11,000 -1,700 Descending Seattle Center
Sat 04:03:10 AM 47.2997 -122.8431 28° Northeast 307 353 9,400 -1,537 Descending Seattle Center
Sat 04:04:11 AM 47.3708 -122.7861 27° Northeast 296 341 7,900 -1,488 Descending Seattle Center
Sat 04:05:11 AM 47.4406 -122.7342 25° Northeast 287 330 6,400 -1,250 Descending Seattle Center
Sat 04:06:11 AM 47.5078 -122.6872 35° Northeast 273 314 5,400 -1,100 Descending Seattle Center
Sat 04:07:11 AM 47.5783 -122.6142 58° Northeast 275 316 4,200 -1,100 Descending Seattle Center
Sat 04:08:11 AM 47.6144 -122.5275 85° East 250 288 3,200 -1,000 Descending Seattle Center
Sat 04:09:11 AM 47.6197 -122.4369 108° East 223 257 2,200 -800 Descending Seattle Center
Sat 04:10:11 AM 47.6050 -122.3681 151° Southeast 184 212 1,600 -694 Descending Seattle Center
Sat 04:11:12 AM 47.5678 -122.3369 147° Southeast 152 175 800 -744 Descending Seattle Center
Sat 04:12:12 AM 47.5400 -122.3106 147° Southeast 138 159 100 -700 Descending Seattle Center

Login

Don't have an account? Register now (free) for customized features, flight alerts, and more!